Back to Top

Language: 

My Weather Underground Personal Weather Station Historical Data with Graphs...

Delerius Weather Station Historical Data
Daily Summary for April 15, 2017 Units:  Both    English   Metric
« Previous Day
Next Day »
Daily Weekly Monthly Yearly Custom
  High: Low: Average:
Temperature: 55.0 °F /  12.8 °C 41.7 °F /  5.4 °C 46.9 °F /  8.3 °C
Dew Point: 43.6 °F /  6.4 °C 35.0 °F /  1.7 °C 39.3 °F /  4.1 °C
Humidity: 90 % 53 % 75 %
Wind Speed: 20.0 mph /  32.2 km/h - 10.5 mph /  16.9 km/h
Wind Gust: 35.0 mph /  56.3 km/h - -
Wind:- - WNW
Pressure: 30.12 in /  1019.9 hPa 29.91 in /  1012.8 hPa -
Precipitation: 0.02 in /  0.51 mm    
Historical Graphs
 
 
Tabular Data for April 15, 2017
Time Temperature Dew Point Pressure Wind Wind Speed Wind Gust Humidity Rainfall Rate (Hourly) solar Conditions
00:04 46.4 °F /  8 °C 43.6 °F /  6.4 °C 29.91 in /  1012.8 hPa WNW 6.0 mph /  9.7 km/h 13.0 mph /  20.9 km/h 90 % 0.01 in /  0.25 mm 0 W/m2
00:09 46.2 °F /  7.9 °C 43.4 °F /  6.3 °C 29.91 in /  1012.8 hPa WNW 7.0 mph /  11.3 km/h 13.0 mph /  20.9 km/h 90 % 0.01 in /  0.25 mm 0 W/m2
00:14 46.2 °F /  7.9 °C 43.4 °F /  6.3 °C 29.91 in /  1012.8 hPa WNW 7.0 mph /  11.3 km/h 13.0 mph /  20.9 km/h 90 % 0.00 in /  0 mm 0 W/m2
00:19 46.2 °F /  7.9 °C 43.4 °F /  6.3 °C 29.91 in /  1012.8 hPa WNW 8.0 mph /  12.9 km/h 15.0 mph /  24.1 km/h 90 % 0.00 in /  0 mm 0 W/m2
00:24 46.2 °F /  7.9 °C 43.2 °F /  6.2 °C 29.91 in /  1012.8 hPa WNW 8.0 mph /  12.9 km/h 15.0 mph /  24.1 km/h 89 % 0.00 in /  0 mm 0 W/m2
00:29 46.4 °F /  8 °C 43.3 °F /  6.3 °C 29.91 in /  1012.8 hPa WNW 9.0 mph /  14.5 km/h 13.0 mph /  20.9 km/h 89 % 0.00 in /  0 mm 0 W/m2
00:32 46.6 °F /  8.1 °C 43.5 °F /  6.4 °C 29.91 in /  1012.8 hPa WNW 9.0 mph /  14.5 km/h 15.0 mph /  24.1 km/h 89 % 0.00 in /  0 mm 0 W/m2
00:37 46.6 °F /  8.1 °C 43.5 °F /  6.4 °C 29.92 in /  1013.1 hPa WNW 7.0 mph /  11.3 km/h 15.0 mph /  24.1 km/h 89 % 0.00 in /  0 mm 0 W/m2
00:42 46.6 °F /  8.1 °C 43.5 °F /  6.4 °C 29.92 in /  1013.1 hPa NW 6.0 mph /  9.7 km/h 10.0 mph /  16.1 km/h 89 % 0.00 in /  0 mm 0 W/m2
00:47 46.6 °F /  8.1 °C 43.2 °F /  6.2 °C 29.92 in /  1013.1 hPa WNW 7.0 mph /  11.3 km/h 14.0 mph /  22.5 km/h 88 % 0.00 in /  0 mm 0 W/m2
00:52 46.6 °F /  8.1 °C 42.9 °F /  6.1 °C 29.92 in /  1013.1 hPa WNW 7.0 mph /  11.3 km/h 14.0 mph /  22.5 km/h 87 % 0.00 in /  0 mm 0 W/m2
00:57 46.6 °F /  8.1 °C 42.9 °F /  6.1 °C 29.92 in /  1013.1 hPa NW 6.0 mph /  9.7 km/h 11.0 mph /  17.7 km/h 87 % 0.00 in /  0 mm 0 W/m2
01:02 46.6 °F /  8.1 °C 42.9 °F /  6.1 °C 29.92 in /  1013.1 hPa NW 5.0 mph /  8 km/h 10.0 mph /  16.1 km/h 87 % 0.00 in /  0 mm 0 W/m2
01:07 46.6 °F /  8.1 °C 42.9 °F /  6.1 °C 29.92 in /  1013.1 hPa NW 5.0 mph /  8 km/h 10.0 mph /  16.1 km/h 87 % 0.00 in /  0 mm 0 W/m2
01:12 46.6 °F /  8.1 °C 42.9 °F /  6.1 °C 29.92 in /  1013.1 hPa WNW 5.0 mph /  8 km/h 10.0 mph /  16.1 km/h 87 % 0.00 in /  0 mm 0 W/m2
01:17 46.6 °F /  8.1 °C 43.2 °F /  6.2 °C 29.92 in /  1013.1 hPa WNW 5.0 mph /  8 km/h 10.0 mph /  16.1 km/h 88 % 0.00 in /  0 mm 0 W/m2
01:22 46.4 °F /  8 °C 42.7 °F /  5.9 °C 29.92 in /  1013.1 hPa WNW 6.0 mph /  9.7 km/h 10.0 mph /  16.1 km/h 87 % 0.00 in /  0 mm 0 W/m2
01:27 46.4 °F /  8 °C 42.7 °F /  5.9 °C 29.92 in /  1013.1 hPa WNW 7.0 mph /  11.3 km/h 12.0 mph /  19.3 km/h 87 % 0.00 in /  0 mm 0 W/m2
01:32 46.4 °F /  8 °C 42.7 °F /  5.9 °C 29.92 in /  1013.1 hPa West 8.0 mph /  12.9 km/h 12.0 mph /  19.3 km/h 87 % 0.00 in /  0 mm 0 W/m2
01:37 46.2 °F /  7.9 °C 42.3 °F /  5.7 °C 29.92 in /  1013.1 hPa West 7.0 mph /  11.3 km/h 11.0 mph /  17.7 km/h 86 % 0.00 in /  0 mm 0 W/m2
01:42 46.2 °F /  7.9 °C 42.3 °F /  5.7 °C 29.92 in /  1013.1 hPa West 7.0 mph /  11.3 km/h 12.0 mph /  19.3 km/h 86 % 0.00 in /  0 mm 0 W/m2
01:47 46.2 °F /  7.9 °C 42.3 °F /  5.7 °C 29.92 in /  1013.1 hPa WNW 6.0 mph /  9.7 km/h 12.0 mph /  19.3 km/h 86 % 0.00 in /  0 mm 0 W/m2
01:52 46.0 °F /  7.8 °C 42.1 °F /  5.6 °C 29.92 in /  1013.1 hPa WNW 6.0 mph /  9.7 km/h 10.0 mph /  16.1 km/h 86 % 0.00 in /  0 mm 0 W/m2
01:57 46.0 °F /  7.8 °C 42.1 °F /  5.6 °C 29.92 in /  1013.1 hPa WNW 6.0 mph /  9.7 km/h 12.0 mph /  19.3 km/h 86 % 0.00 in /  0 mm 0 W/m2
02:02 46.0 °F /  7.8 °C 42.1 °F /  5.6 °C 29.92 in /  1013.1 hPa WNW 7.0 mph /  11.3 km/h 12.0 mph /  19.3 km/h 86 % 0.00 in /  0 mm 0 W/m2
02:07 46.2 °F /  7.9 °C 42.3 °F /  5.7 °C 29.92 in /  1013.1 hPa WNW 5.0 mph /  8 km/h 12.0 mph /  19.3 km/h 86 % 0.00 in /  0 mm 0 W/m2
02:12 46.2 °F /  7.9 °C 42.3 °F /  5.7 °C 29.92 in /  1013.1 hPa WNW 4.0 mph /  6.4 km/h 8.0 mph /  12.9 km/h 86 % 0.00 in /  0 mm 0 W/m2
02:17 46.2 °F /  7.9 °C 42.3 °F /  5.7 °C 29.92 in /  1013.1 hPa WNW 5.0 mph /  8 km/h 10.0 mph /  16.1 km/h 86 % 0.00 in /  0 mm 0 W/m2
02:22 46.2 °F /  7.9 °C 42.3 °F /  5.7 °C 29.92 in /  1013.1 hPa WNW 6.0 mph /  9.7 km/h 13.0 mph /  20.9 km/h 86 % 0.00 in /  0 mm 0 W/m2
02:27 46.0 °F /  7.8 °C 41.8 °F /  5.4 °C 29.92 in /  1013.1 hPa NW 7.0 mph /  11.3 km/h 14.0 mph /  22.5 km/h 85 % 0.00 in /  0 mm 0 W/m2
02:32 46.0 °F /  7.8 °C 41.5 °F /  5.3 °C 29.92 in /  1013.1 hPa NW 8.0 mph /  12.9 km/h 15.0 mph /  24.1 km/h 84 % 0.00 in /  0 mm 0 W/m2
02:37 46.0 °F /  7.8 °C 41.5 °F /  5.3 °C 29.93 in /  1013.4 hPa WNW 7.0 mph /  11.3 km/h 15.0 mph /  24.1 km/h 84 % 0.00 in /  0 mm 0 W/m2
02:42 45.9 °F /  7.7 °C 41.0 °F /  5 °C 29.93 in /  1013.4 hPa WNW 7.0 mph /  11.3 km/h 13.0 mph /  20.9 km/h 83 % 0.00 in /  0 mm 0 W/m2
02:47 45.7 °F /  7.6 °C 40.8 °F /  4.9 °C 29.93 in /  1013.4 hPa WNW 7.0 mph /  11.3 km/h 12.0 mph /  19.3 km/h 83 % 0.00 in /  0 mm 0 W/m2
02:52 45.3 °F /  7.4 °C 40.1 °F /  4.5 °C 29.93 in /  1013.4 hPa WNW 8.0 mph /  12.9 km/h 19.0 mph /  30.6 km/h 82 % 0.00 in /  0 mm 0 W/m2
02:57 45.1 °F /  7.3 °C 40.0 °F /  4.4 °C 29.93 in /  1013.4 hPa WNW 9.0 mph /  14.5 km/h 19.0 mph /  30.6 km/h 82 % 0.00 in /  0 mm 0 W/m2
03:02 45.0 °F /  7.2 °C 39.8 °F /  4.3 °C 29.93 in /  1013.4 hPa WNW 8.0 mph /  12.9 km/h 14.0 mph /  22.5 km/h 82 % 0.00 in /  0 mm 0 W/m2
03:07 44.8 °F /  7.1 °C 39.9 °F /  4.4 °C 29.93 in /  1013.4 hPa WNW 7.0 mph /  11.3 km/h 13.0 mph /  20.9 km/h 83 % 0.00 in /  0 mm 0 W/m2
03:12 44.8 °F /  7.1 °C 39.9 °F /  4.4 °C 29.93 in /  1013.4 hPa WNW 7.0 mph /  11.3 km/h 11.0 mph /  17.7 km/h 83 % 0.00 in /  0 mm 0 W/m2
03:17 44.4 °F /  6.9 °C 39.6 °F /  4.2 °C 29.93 in /  1013.4 hPa WNW 6.0 mph /  9.7 km/h 11.0 mph /  17.7 km/h 83 % 0.00 in /  0 mm 0 W/m2
03:22 44.2 °F /  6.8 °C 39.7 °F /  4.3 °C 29.93 in /  1013.4 hPa WNW 5.0 mph /  8 km/h 9.0 mph /  14.5 km/h 84 % 0.00 in /  0 mm 0 W/m2
03:27 44.2 °F /  6.8 °C 39.7 °F /  4.3 °C 29.93 in /  1013.4 hPa WNW 5.0 mph /  8 km/h 9.0 mph /  14.5 km/h 84 % 0.00 in /  0 mm 0 W/m2
03:32 44.1 °F /  6.7 °C 39.8 °F /  4.3 °C 29.93 in /  1013.4 hPa WNW 4.0 mph /  6.4 km/h 9.0 mph /  14.5 km/h 85 % 0.00 in /  0 mm 0 W/m2
03:38 43.9 °F /  6.6 °C 39.7 °F /  4.3 °C 29.94 in /  1013.8 hPa WNW 3.0 mph /  4.8 km/h 7.0 mph /  11.3 km/h 85 % 0.00 in /  0 mm 0 W/m2
03:43 43.9 °F /  6.6 °C 40.0 °F /  4.4 °C 29.94 in /  1013.8 hPa WNW 3.0 mph /  4.8 km/h 7.0 mph /  11.3 km/h 86 % 0.00 in /  0 mm 0 W/m2
03:48 43.7 °F /  6.5 °C 39.8 °F /  4.3 °C 29.94 in /  1013.8 hPa WNW 3.0 mph /  4.8 km/h 8.0 mph /  12.9 km/h 86 % 0.00 in /  0 mm 0 W/m2
03:53 43.7 °F /  6.5 °C 39.8 °F /  4.3 °C 29.94 in /  1013.8 hPa WNW 3.0 mph /  4.8 km/h 8.0 mph /  12.9 km/h 86 % 0.00 in /  0 mm 0 W/m2
03:58 43.7 °F /  6.5 °C 39.8 °F /  4.3 °C 29.94 in /  1013.8 hPa WNW 4.0 mph /  6.4 km/h 8.0 mph /  12.9 km/h 86 % 0.00 in /  0 mm 0 W/m2
04:03 43.5 °F /  6.4 °C 39.6 °F /  4.2 °C 29.94 in /  1013.8 hPa WNW 4.0 mph /  6.4 km/h 9.0 mph /  14.5 km/h 86 % 0.00 in /  0 mm 0 W/m2
04:08 43.3 °F /  6.3 °C 39.4 °F /  4.1 °C 29.94 in /  1013.8 hPa WNW 4.0 mph /  6.4 km/h 9.0 mph /  14.5 km/h 86 % 0.00 in /  0 mm 0 W/m2
04:13 43.3 °F /  6.3 °C 39.4 °F /  4.1 °C 29.94 in /  1013.8 hPa WNW 5.0 mph /  8 km/h 12.0 mph /  19.3 km/h 86 % 0.00 in /  0 mm 0 W/m2
04:18 43.3 °F /  6.3 °C 39.4 °F /  4.1 °C 29.94 in /  1013.8 hPa WNW 4.0 mph /  6.4 km/h 12.0 mph /  19.3 km/h 86 % 0.00 in /  0 mm 0 W/m2
04:23 43.3 °F /  6.3 °C 39.4 °F /  4.1 °C 29.94 in /  1013.8 hPa WNW 3.0 mph /  4.8 km/h 8.0 mph /  12.9 km/h 86 % 0.00 in /  0 mm 0 W/m2
04:24 43.3 °F /  6.3 °C 39.4 °F /  4.1 °C 29.94 in /  1013.8 hPa WNW 3.0 mph /  4.8 km/h 8.0 mph /  12.9 km/h 86 % 0.00 in /  0 mm 0 W/m2
04:29 43.2 °F /  6.2 °C 39.6 °F /  4.2 °C 29.95 in /  1014.1 hPa WNW 3.0 mph /  4.8 km/h 8.0 mph /  12.9 km/h 87 % 0.00 in /  0 mm 0 W/m2
04:34 43.2 °F /  6.2 °C 39.6 °F /  4.2 °C 29.95 in /  1014.1 hPa WNW 3.0 mph /  4.8 km/h 7.0 mph /  11.3 km/h 87 % 0.00 in /  0 mm 0 W/m2
04:39 43.2 °F /  6.2 °C 39.6 °F /  4.2 °C 29.95 in /  1014.1 hPa WNW 3.0 mph /  4.8 km/h 7.0 mph /  11.3 km/h 87 % 0.00 in /  0 mm 0 W/m2
04:44 43.2 °F /  6.2 °C 39.6 °F /  4.2 °C 29.95 in /  1014.1 hPa WNW 4.0 mph /  6.4 km/h 10.0 mph /  16.1 km/h 87 % 0.00 in /  0 mm 0 W/m2
04:49 43.0 °F /  6.1 °C 39.1 °F /  3.9 °C 29.95 in /  1014.1 hPa WNW 6.0 mph /  9.7 km/h 13.0 mph /  20.9 km/h 86 % 0.00 in /  0 mm 0 W/m2
04:54 43.0 °F /  6.1 °C 39.1 °F /  3.9 °C 29.95 in /  1014.1 hPa West 8.0 mph /  12.9 km/h 14.0 mph /  22.5 km/h 86 % 0.00 in /  0 mm 0 W/m2
04:59 43.0 °F /  6.1 °C 38.8 °F /  3.8 °C 29.95 in /  1014.1 hPa West 9.0 mph /  14.5 km/h 19.0 mph /  30.6 km/h 85 % 0.00 in /  0 mm 0 W/m2
05:04 43.0 °F /  6.1 °C 38.8 °F /  3.8 °C 29.95 in /  1014.1 hPa WNW 8.0 mph /  12.9 km/h 19.0 mph /  30.6 km/h 85 % 0.00 in /  0 mm 0 W/m2
05:09 43.0 °F /  6.1 °C 38.8 °F /  3.8 °C 29.95 in /  1014.1 hPa WNW 7.0 mph /  11.3 km/h 13.0 mph /  20.9 km/h 85 % 0.00 in /  0 mm 0 W/m2
05:14 42.8 °F /  6 °C 38.6 °F /  3.7 °C 29.95 in /  1014.1 hPa WNW 7.0 mph /  11.3 km/h 13.0 mph /  20.9 km/h 85 % 0.00 in /  0 mm 0 W/m2
05:19 42.6 °F /  5.9 °C 38.4 °F /  3.6 °C 29.95 in /  1014.1 hPa WNW 6.0 mph /  9.7 km/h 11.0 mph /  17.7 km/h 85 % 0.00 in /  0 mm 0 W/m2
05:24 42.4 °F /  5.8 °C 37.9 °F /  3.3 °C 29.95 in /  1014.1 hPa West 6.0 mph /  9.7 km/h 12.0 mph /  19.3 km/h 84 % 0.00 in /  0 mm 0 W/m2
05:29 42.3 °F /  5.7 °C 37.8 °F /  3.2 °C 29.95 in /  1014.1 hPa West 6.0 mph /  9.7 km/h 12.0 mph /  19.3 km/h 84 % 0.00 in /  0 mm 0 W/m2
05:34 42.1 °F /  5.6 °C 37.6 °F /  3.1 °C 29.95 in /  1014.1 hPa West 6.0 mph /  9.7 km/h 12.0 mph /  19.3 km/h 84 % 0.00 in /  0 mm 0 W/m2
05:39 42.1 °F /  5.6 °C 37.6 °F /  3.1 °C 29.95 in /  1014.1 hPa West 6.0 mph /  9.7 km/h 13.0 mph /  20.9 km/h 84 % 0.00 in /  0 mm 0 W/m2
05:44 41.9 °F /  5.5 °C 37.7 °F /  3.2 °C 29.95 in /  1014.1 hPa West 6.0 mph /  9.7 km/h 13.0 mph /  20.9 km/h 85 % 0.00 in /  0 mm 0 W/m2
05:49 41.7 °F /  5.4 °C 37.5 °F /  3.1 °C 29.95 in /  1014.1 hPa WNW 6.0 mph /  9.7 km/h 12.0 mph /  19.3 km/h 85 % 0.00 in /  0 mm 0 W/m2
05:54 41.7 °F /  5.4 °C 37.5 °F /  3.1 °C 29.95 in /  1014.1 hPa WNW 7.0 mph /  11.3 km/h 14.0 mph /  22.5 km/h 85 % 0.00 in /  0 mm 0 W/m2
05:59 41.9 °F /  5.5 °C 37.7 °F /  3.2 °C 29.95 in /  1014.1 hPa West 7.0 mph /  11.3 km/h 14.0 mph /  22.5 km/h 85 % 0.00 in /  0 mm 0 W/m2
06:04 42.1 °F /  5.6 °C 38.2 °F /  3.4 °C 29.95 in /  1014.1 hPa West 6.0 mph /  9.7 km/h 11.0 mph /  17.7 km/h 86 % 0.00 in /  0 mm 5 W/m2
06:09 42.1 °F /  5.6 °C 38.2 °F /  3.4 °C 29.95 in /  1014.1 hPa West 8.0 mph /  12.9 km/h 14.0 mph /  22.5 km/h 86 % 0.00 in /  0 mm 9 W/m2
06:14 42.1 °F /  5.6 °C 38.5 °F /  3.6 °C 29.95 in /  1014.1 hPa WNW 9.0 mph /  14.5 km/h 18.0 mph /  29 km/h 87 % 0.00 in /  0 mm 16 W/m2
06:19 42.1 °F /  5.6 °C 38.8 °F /  3.8 °C 29.96 in /  1014.4 hPa WNW 10.0 mph /  16.1 km/h 18.0 mph /  29 km/h 88 % 0.00 in /  0 mm 23 W/m2
06:24 42.1 °F /  5.6 °C 38.8 °F /  3.8 °C 29.95 in /  1014.1 hPa WNW 10.0 mph /  16.1 km/h 18.0 mph /  29 km/h 88 % 0.00 in /  0 mm 19 W/m2
06:29 41.7 °F /  5.4 °C 38.7 °F /  3.7 °C 29.95 in /  1014.1 hPa West 11.0 mph /  17.7 km/h 19.0 mph /  30.6 km/h 89 % 0.00 in /  0 mm 19 W/m2
06:34 41.7 °F /  5.4 °C 38.7 °F /  3.7 °C 29.95 in /  1014.1 hPa West 11.0 mph /  17.7 km/h 19.0 mph /  30.6 km/h 89 % 0.00 in /  0 mm 23 W/m2
06:39 41.7 °F /  5.4 °C 38.7 °F /  3.7 °C 29.95 in /  1014.1 hPa West 11.0 mph /  17.7 km/h 16.0 mph /  25.7 km/h 89 % 0.00 in /  0 mm 26 W/m2
06:44 41.7 °F /  5.4 °C 38.7 °F /  3.7 °C 29.95 in /  1014.1 hPa West 11.0 mph /  17.7 km/h 18.0 mph /  29 km/h 89 % 0.00 in /  0 mm 30 W/m2
06:49 41.9 °F /  5.5 °C 38.6 °F /  3.7 °C 29.95 in /  1014.1 hPa West 12.0 mph /  19.3 km/h 22.0 mph /  35.4 km/h 88 % 0.00 in /  0 mm 35 W/m2
06:54 42.1 °F /  5.6 °C 38.8 °F /  3.8 °C 29.95 in /  1014.1 hPa West 12.0 mph /  19.3 km/h 22.0 mph /  35.4 km/h 88 % 0.00 in /  0 mm 40 W/m2
07:00 42.1 °F /  5.6 °C 38.5 °F /  3.6 °C 29.95 in /  1014.1 hPa West 11.0 mph /  17.7 km/h 20.0 mph /  32.2 km/h 87 % 0.00 in /  0 mm 49 W/m2
07:05 42.3 °F /  5.7 °C 38.4 °F /  3.6 °C 29.95 in /  1014.1 hPa West 12.0 mph /  19.3 km/h 19.0 mph /  30.6 km/h 86 % 0.00 in /  0 mm 63 W/m2
07:10 42.3 °F /  5.7 °C 38.4 °F /  3.6 °C 29.95 in /  1014.1 hPa West 12.0 mph /  19.3 km/h 20.0 mph /  32.2 km/h 86 % 0.00 in /  0 mm 88 W/m2
07:15 42.4 °F /  5.8 °C 38.5 °F /  3.6 °C 29.95 in /  1014.1 hPa West 12.0 mph /  19.3 km/h 22.0 mph /  35.4 km/h 86 % 0.00 in /  0 mm 81 W/m2
07:20 42.6 °F /  5.9 °C 38.4 °F /  3.6 °C 29.96 in /  1014.4 hPa West 13.0 mph /  20.9 km/h 23.0 mph /  37 km/h 85 % 0.00 in /  0 mm 86 W/m2
07:25 43.0 °F /  6.1 °C 38.5 °F /  3.6 °C 29.96 in /  1014.4 hPa West 15.0 mph /  24.1 km/h 24.0 mph /  38.6 km/h 84 % 0.00 in /  0 mm 102 W/m2
07:30 43.2 °F /  6.2 °C 38.7 °F /  3.7 °C 29.96 in /  1014.4 hPa West 15.0 mph /  24.1 km/h 25.0 mph /  40.2 km/h 84 % 0.00 in /  0 mm 90 W/m2
07:35 43.3 °F /  6.3 °C 38.5 °F /  3.6 °C 29.97 in /  1014.8 hPa West 14.0 mph /  22.5 km/h 25.0 mph /  40.2 km/h 83 % 0.00 in /  0 mm 90 W/m2
07:40 43.3 °F /  6.3 °C 38.5 °F /  3.6 °C 29.97 in /  1014.8 hPa WNW 15.0 mph /  24.1 km/h 25.0 mph /  40.2 km/h 83 % 0.00 in /  0 mm 100 W/m2
07:45 43.5 °F /  6.4 °C 38.7 °F /  3.7 °C 29.97 in /  1014.8 hPa WNW 13.0 mph /  20.9 km/h 25.0 mph /  40.2 km/h 83 % 0.00 in /  0 mm 128 W/m2
07:50 43.7 °F /  6.5 °C 38.9 °F /  3.8 °C 29.97 in /  1014.8 hPa WNW 13.0 mph /  20.9 km/h 23.0 mph /  37 km/h 83 % 0.00 in /  0 mm 149 W/m2
07:55 43.9 °F /  6.6 °C 38.7 °F /  3.7 °C 29.97 in /  1014.8 hPa WNW 14.0 mph /  22.5 km/h 24.0 mph /  38.6 km/h 82 % 0.00 in /  0 mm 156 W/m2
08:00 44.2 °F /  6.8 °C 39.1 °F /  3.9 °C 29.97 in /  1014.8 hPa WNW 15.0 mph /  24.1 km/h 28.0 mph /  45.1 km/h 82 % 0.00 in /  0 mm 155 W/m2
08:05 44.2 °F /  6.8 °C 38.8 °F /  3.8 °C 29.98 in /  1015.1 hPa WNW 14.0 mph /  22.5 km/h 28.0 mph /  45.1 km/h 81 % 0.00 in /  0 mm 155 W/m2
08:10 44.4 °F /  6.9 °C 39.0 °F /  3.9 °C 29.98 in /  1015.1 hPa WNW 13.0 mph /  20.9 km/h 22.0 mph /  35.4 km/h 81 % 0.00 in /  0 mm 153 W/m2
08:15 44.4 °F /  6.9 °C 39.0 °F /  3.9 °C 29.98 in /  1015.1 hPa WNW 13.0 mph /  20.9 km/h 20.0 mph /  32.2 km/h 81 % 0.00 in /  0 mm 165 W/m2
08:20 44.6 °F /  7 °C 39.1 °F /  3.9 °C 29.98 in /  1015.1 hPa WNW 14.0 mph /  22.5 km/h 23.0 mph /  37 km/h 81 % 0.00 in /  0 mm 167 W/m2
08:25 44.8 °F /  7.1 °C 39.0 °F /  3.9 °C 29.99 in /  1015.5 hPa WNW 15.0 mph /  24.1 km/h 25.0 mph /  40.2 km/h 80 % 0.00 in /  0 mm 151 W/m2
08:30 44.8 °F /  7.1 °C 39.0 °F /  3.9 °C 29.98 in /  1015.1 hPa WNW 14.0 mph /  22.5 km/h 25.0 mph /  40.2 km/h 80 % 0.00 in /  0 mm 139 W/m2
08:35 44.8 °F /  7.1 °C 39.0 °F /  3.9 °C 29.99 in /  1015.5 hPa WNW 13.0 mph /  20.9 km/h 21.0 mph /  33.8 km/h 80 % 0.00 in /  0 mm 151 W/m2
08:40 44.8 °F /  7.1 °C 39.0 °F /  3.9 °C 29.98 in /  1015.1 hPa WNW 12.0 mph /  19.3 km/h 20.0 mph /  32.2 km/h 80 % 0.00 in /  0 mm 163 W/m2
08:45 45.0 °F /  7.2 °C 38.8 °F /  3.8 °C 29.98 in /  1015.1 hPa WNW 12.0 mph /  19.3 km/h 21.0 mph /  33.8 km/h 79 % 0.00 in /  0 mm 153 W/m2
08:50 45.0 °F /  7.2 °C 38.8 °F /  3.8 °C 29.98 in /  1015.1 hPa WNW 13.0 mph /  20.9 km/h 22.0 mph /  35.4 km/h 79 % 0.00 in /  0 mm 142 W/m2
08:55 45.0 °F /  7.2 °C 38.5 °F /  3.6 °C 29.98 in /  1015.1 hPa WNW 13.0 mph /  20.9 km/h 22.0 mph /  35.4 km/h 78 % 0.00 in /  0 mm 153 W/m2
09:00 45.1 °F /  7.3 °C 38.7 °F /  3.7 °C 29.99 in /  1015.5 hPa WNW 14.0 mph /  22.5 km/h 25.0 mph /  40.2 km/h 78 % 0.00 in /  0 mm 160 W/m2
09:05 45.1 °F /  7.3 °C 38.7 °F /  3.7 °C 29.99 in /  1015.5 hPa WNW 14.0 mph /  22.5 km/h 25.0 mph /  40.2 km/h 78 % 0.00 in /  0 mm 163 W/m2
09:10 45.3 °F /  7.4 °C 38.9 °F /  3.8 °C 29.99 in /  1015.5 hPa WNW 13.0 mph /  20.9 km/h 24.0 mph /  38.6 km/h 78 % 0.00 in /  0 mm 163 W/m2
09:15 45.3 °F /  7.4 °C 38.5 °F /  3.6 °C 29.99 in /  1015.5 hPa WNW 14.0 mph /  22.5 km/h 24.0 mph /  38.6 km/h 77 % 0.00 in /  0 mm 172 W/m2
09:20 45.7 °F /  7.6 °C 39.2 °F /  4 °C 29.99 in /  1015.5 hPa WNW 14.0 mph /  22.5 km/h 23.0 mph /  37 km/h 78 % 0.00 in /  0 mm 178 W/m2
09:25 45.7 °F /  7.6 °C 39.2 °F /  4 °C 29.99 in /  1015.5 hPa WNW 13.0 mph /  20.9 km/h 22.0 mph /  35.4 km/h 78 % 0.00 in /  0 mm 186 W/m2
09:30 45.9 °F /  7.7 °C 39.4 °F /  4.1 °C 29.99 in /  1015.5 hPa WNW 12.0 mph /  19.3 km/h 22.0 mph /  35.4 km/h 78 % 0.00 in /  0 mm 193 W/m2
09:35 46.0 °F /  7.8 °C 39.6 °F /  4.2 °C 30.00 in /  1015.8 hPa WNW 10.0 mph /  16.1 km/h 19.0 mph /  30.6 km/h 78 % 0.00 in /  0 mm 183 W/m2
09:40 46.0 °F /  7.8 °C 38.9 °F /  3.8 °C 30.00 in /  1015.8 hPa WNW 10.0 mph /  16.1 km/h 19.0 mph /  30.6 km/h 76 % 0.00 in /  0 mm 197 W/m2
09:45 46.2 °F /  7.9 °C 39.1 °F /  3.9 °C 30.00 in /  1015.8 hPa WNW 11.0 mph /  17.7 km/h 23.0 mph /  37 km/h 76 % 0.00 in /  0 mm 227 W/m2
09:50 46.6 °F /  8.1 °C 39.1 °F /  3.9 °C 30.00 in /  1015.8 hPa WNW 11.0 mph /  17.7 km/h 23.0 mph /  37 km/h 75 % 0.00 in /  0 mm 246 W/m2
09:55 46.8 °F /  8.2 °C 38.9 °F /  3.8 °C 30.01 in /  1016.1 hPa WNW 12.0 mph /  19.3 km/h 23.0 mph /  37 km/h 74 % 0.00 in /  0 mm 262 W/m2
10:00 46.9 °F /  8.3 °C 39.1 °F /  3.9 °C 30.01 in /  1016.1 hPa WNW 13.0 mph /  20.9 km/h 23.0 mph /  37 km/h 74 % 0.00 in /  0 mm 244 W/m2
10:05 47.1 °F /  8.4 °C 38.9 °F /  3.8 °C 30.01 in /  1016.1 hPa WNW 12.0 mph /  19.3 km/h 20.0 mph /  32.2 km/h 73 % 0.00 in /  0 mm 225 W/m2
10:10 47.5 °F /  8.6 °C 39.6 °F /  4.2 °C 30.01 in /  1016.1 hPa WNW 12.0 mph /  19.3 km/h 20.0 mph /  32.2 km/h 74 % 0.00 in /  0 mm 234 W/m2
10:15 47.5 °F /  8.6 °C 39.3 °F /  4.1 °C 30.01 in /  1016.1 hPa WNW 11.0 mph /  17.7 km/h 21.0 mph /  33.8 km/h 73 % 0.00 in /  0 mm 239 W/m2
10:20 47.5 °F /  8.6 °C 38.9 °F /  3.8 °C 30.01 in /  1016.1 hPa WNW 12.0 mph /  19.3 km/h 22.0 mph /  35.4 km/h 72 % 0.00 in /  0 mm 244 W/m2
10:25 47.7 °F /  8.7 °C 39.1 °F /  3.9 °C 30.01 in /  1016.1 hPa West 12.0 mph /  19.3 km/h 22.0 mph /  35.4 km/h 72 % 0.00 in /  0 mm 237 W/m2
10:30 47.8 °F /  8.8 °C 38.9 °F /  3.8 °C 30.01 in /  1016.1 hPa WNW 11.0 mph /  17.7 km/h 18.0 mph /  29 km/h 71 % 0.00 in /  0 mm 253 W/m2
10:35 48.0 °F /  8.9 °C 39.1 °F /  3.9 °C 30.01 in /  1016.1 hPa WNW 11.0 mph /  17.7 km/h 18.0 mph /  29 km/h 71 % 0.00 in /  0 mm 276 W/m2
10:40 48.2 °F /  9 °C 39.2 °F /  4 °C 30.02 in /  1016.5 hPa WNW 11.0 mph /  17.7 km/h 20.0 mph /  32.2 km/h 71 % 0.00 in /  0 mm 241 W/m2
10:45 48.4 °F /  9.1 °C 39.4 °F /  4.1 °C 30.01 in /  1016.1 hPa WNW 11.0 mph /  17.7 km/h 20.0 mph /  32.2 km/h 71 % 0.00 in /  0 mm 420 W/m2
10:50 48.7 °F /  9.3 °C 39.8 °F /  4.3 °C 30.01 in /  1016.1 hPa WNW 11.0 mph /  17.7 km/h 20.0 mph /  32.2 km/h 71 % 0.00 in /  0 mm 380 W/m2
10:55 49.1 °F /  9.5 °C 39.4 °F /  4.1 °C 30.01 in /  1016.1 hPa WNW 12.0 mph /  19.3 km/h 22.0 mph /  35.4 km/h 69 % 0.00 in /  0 mm 425 W/m2
11:00 49.6 °F /  9.8 °C 39.1 °F /  3.9 °C 30.01 in /  1016.1 hPa WNW 12.0 mph /  19.3 km/h 22.0 mph /  35.4 km/h 67 % 0.00 in /  0 mm 461 W/m2
11:05 50.2 °F /  10.1 °C 39.3 °F /  4.1 °C 30.01 in /  1016.1 hPa WNW 12.0 mph /  19.3 km/h 20.0 mph /  32.2 km/h 66 % 0.00 in /  0 mm 336 W/m2
11:10 50.4 °F /  10.2 °C 39.0 °F /  3.9 °C 30.01 in /  1016.1 hPa WNW 14.0 mph /  22.5 km/h 24.0 mph /  38.6 km/h 65 % 0.00 in /  0 mm 417 W/m2
11:15 50.2 °F /  10.1 °C 38.9 °F /  3.8 °C 30.01 in /  1016.1 hPa West 16.0 mph /  25.7 km/h 25.0 mph /  40.2 km/h 65 % 0.00 in /  0 mm 360 W/m2
11:20 50.5 °F /  10.3 °C 39.2 °F /  4 °C 30.01 in /  1016.1 hPa WNW 14.0 mph /  22.5 km/h 25.0 mph /  40.2 km/h 65 % 0.00 in /  0 mm 369 W/m2
11:25 50.7 °F /  10.4 °C 39.0 °F /  3.9 °C 30.01 in /  1016.1 hPa WNW 12.0 mph /  19.3 km/h 23.0 mph /  37 km/h 64 % 0.00 in /  0 mm 353 W/m2
11:30 50.9 °F /  10.5 °C 39.5 °F /  4.2 °C 30.02 in /  1016.5 hPa WNW 12.0 mph /  19.3 km/h 23.0 mph /  37 km/h 65 % 0.00 in /  0 mm 552 W/m2
11:35 51.3 °F /  10.7 °C 39.1 °F /  3.9 °C 30.01 in /  1016.1 hPa WNW 14.0 mph /  22.5 km/h 25.0 mph /  40.2 km/h 63 % 0.00 in /  0 mm 858 W/m2
11:41 51.6 °F /  10.9 °C 39.4 °F /  4.1 °C 30.02 in /  1016.5 hPa WNW 16.0 mph /  25.7 km/h 26.0 mph /  41.8 km/h 63 % 0.00 in /  0 mm 278 W/m2
11:46 51.6 °F /  10.9 °C 39.0 °F /  3.9 °C 30.02 in /  1016.5 hPa WNW 15.0 mph /  24.1 km/h 26.0 mph /  41.8 km/h 62 % 0.00 in /  0 mm 352 W/m2
11:51 52.0 °F /  11.1 °C 38.9 °F /  3.8 °C 30.02 in /  1016.5 hPa WNW 14.0 mph /  22.5 km/h 23.0 mph /  37 km/h 61 % 0.00 in /  0 mm 844 W/m2
11:56 52.5 °F /  11.4 °C 39.0 °F /  3.9 °C 30.02 in /  1016.5 hPa West 14.0 mph /  22.5 km/h 23.0 mph /  37 km/h 60 % 0.00 in /  0 mm 645 W/m2
12:01 52.3 °F /  11.3 °C 38.9 °F /  3.8 °C 30.02 in /  1016.5 hPa West 15.0 mph /  24.1 km/h 25.0 mph /  40.2 km/h 60 % 0.00 in /  0 mm 185 W/m2
12:06 51.4 °F /  10.8 °C 38.0 °F /  3.3 °C 30.02 in /  1016.5 hPa West 16.0 mph /  25.7 km/h 26.0 mph /  41.8 km/h 60 % 0.00 in /  0 mm 318 W/m2
12:11 51.3 °F /  10.7 °C 37.8 °F /  3.2 °C 30.02 in /  1016.5 hPa West 16.0 mph /  25.7 km/h 26.0 mph /  41.8 km/h 60 % 0.00 in /  0 mm 339 W/m2
12:16 51.3 °F /  10.7 °C 37.4 °F /  3 °C 30.02 in /  1016.5 hPa WNW 14.0 mph /  22.5 km/h 25.0 mph /  40.2 km/h 59 % 0.00 in /  0 mm 329 W/m2
12:21 51.4 °F /  10.8 °C 37.6 °F /  3.1 °C 30.02 in /  1016.5 hPa WNW 13.0 mph /  20.9 km/h 24.0 mph /  38.6 km/h 59 % 0.00 in /  0 mm 216 W/m2
12:26 51.3 °F /  10.7 °C 37.8 °F /  3.2 °C 30.02 in /  1016.5 hPa WNW 14.0 mph /  22.5 km/h 23.0 mph /  37 km/h 60 % 0.00 in /  0 mm 248 W/m2
12:31 51.3 °F /  10.7 °C 37.8 °F /  3.2 °C 30.02 in /  1016.5 hPa WNW 13.0 mph /  20.9 km/h 23.0 mph /  37 km/h 60 % 0.00 in /  0 mm 359 W/m2
12:36 51.8 °F /  11 °C 39.2 °F /  4 °C 30.02 in /  1016.5 hPa WNW 12.0 mph /  19.3 km/h 21.0 mph /  33.8 km/h 62 % 0.00 in /  0 mm 1032 W/m2
12:41 52.9 °F /  11.6 °C 38.9 °F /  3.8 °C 30.02 in /  1016.5 hPa WNW 14.0 mph /  22.5 km/h 28.0 mph /  45.1 km/h 59 % 0.00 in /  0 mm 299 W/m2
12:46 53.2 °F /  11.8 °C 39.3 °F /  4.1 °C 30.02 in /  1016.5 hPa West 15.0 mph /  24.1 km/h 28.0 mph /  45.1 km/h 59 % 0.00 in /  0 mm 1002 W/m2
12:51 54.0 °F /  12.2 °C 39.5 °F /  4.2 °C 30.02 in /  1016.5 hPa West 14.0 mph /  22.5 km/h 25.0 mph /  40.2 km/h 58 % 0.00 in /  0 mm 1002 W/m2
12:56 54.0 °F /  12.2 °C 38.6 °F /  3.7 °C 30.02 in /  1016.5 hPa West 15.0 mph /  24.1 km/h 25.0 mph /  40.2 km/h 56 % 0.00 in /  0 mm 232 W/m2
13:01 53.1 °F /  11.7 °C 37.8 °F /  3.2 °C 30.02 in /  1016.5 hPa West 15.0 mph /  24.1 km/h 25.0 mph /  40.2 km/h 56 % 0.00 in /  0 mm 360 W/m2
13:06 53.2 °F /  11.8 °C 38.8 °F /  3.8 °C 30.02 in /  1016.5 hPa WNW 13.0 mph /  20.9 km/h 25.0 mph /  40.2 km/h 58 % 0.00 in /  0 mm 367 W/m2
13:11 53.8 °F /  12.1 °C 38.4 °F /  3.6 °C 30.02 in /  1016.5 hPa WNW 12.0 mph /  19.3 km/h 24.0 mph /  38.6 km/h 56 % 0.00 in /  0 mm 200 W/m2
13:16 53.4 °F /  11.9 °C 38.6 °F /  3.7 °C 30.02 in /  1016.5 hPa WNW 11.0 mph /  17.7 km/h 24.0 mph /  38.6 km/h 57 % 0.00 in /  0 mm 258 W/m2
13:21 54.0 °F /  12.2 °C 39.1 °F /  3.9 °C 30.02 in /  1016.5 hPa WNW 12.0 mph /  19.3 km/h 23.0 mph /  37 km/h 57 % 0.00 in /  0 mm 330 W/m2
13:26 53.4 °F /  11.9 °C 38.1 °F /  3.4 °C 30.02 in /  1016.5 hPa West 15.0 mph /  24.1 km/h 26.0 mph /  41.8 km/h 56 % 0.00 in /  0 mm 441 W/m2
13:31 52.9 °F /  11.6 °C 38.5 °F /  3.6 °C 30.03 in /  1016.8 hPa West 16.0 mph /  25.7 km/h 27.0 mph /  43.5 km/h 58 % 0.00 in /  0 mm 1007 W/m2
13:36 52.9 °F /  11.6 °C 38.9 °F /  3.8 °C 30.02 in /  1016.5 hPa West 15.0 mph /  24.1 km/h 27.0 mph /  43.5 km/h 59 % 0.00 in /  0 mm 241 W/m2
13:41 52.5 °F /  11.4 °C 38.6 °F /  3.7 °C 30.02 in /  1016.5 hPa WNW 14.0 mph /  22.5 km/h 23.0 mph /  37 km/h 59 % 0.00 in /  0 mm 209 W/m2
13:46 52.3 °F /  11.3 °C 39.3 °F /  4.1 °C 30.02 in /  1016.5 hPa WNW 12.0 mph /  19.3 km/h 22.0 mph /  35.4 km/h 61 % 0.00 in /  0 mm 313 W/m2
13:51 52.5 °F /  11.4 °C 38.6 °F /  3.7 °C 30.02 in /  1016.5 hPa WNW 11.0 mph /  17.7 km/h 19.0 mph /  30.6 km/h 59 % 0.00 in /  0 mm 265 W/m2
13:56 52.5 °F /  11.4 °C 39.5 °F /  4.2 °C 30.02 in /  1016.5 hPa WNW 14.0 mph /  22.5 km/h 27.0 mph /  43.5 km/h 61 % 0.00 in /  0 mm 925 W/m2
14:01 52.9 °F /  11.6 °C 39.8 °F /  4.3 °C 30.02 in /  1016.5 hPa WNW 16.0 mph /  25.7 km/h 27.0 mph /  43.5 km/h 61 % 0.00 in /  0 mm 819 W/m2
14:06 53.8 °F /  12.1 °C 40.2 °F /  4.6 °C 30.02 in /  1016.5 hPa WNW 16.0 mph /  25.7 km/h 24.0 mph /  38.6 km/h 60 % 0.00 in /  0 mm 826 W/m2
14:11 54.1 °F /  12.3 °C 38.8 °F /  3.8 °C 30.02 in /  1016.5 hPa WNW 16.0 mph /  25.7 km/h 29.0 mph /  46.7 km/h 56 % 0.00 in /  0 mm 981 W/m2
14:16 54.9 °F /  12.7 °C 39.5 °F /  4.2 °C 30.02 in /  1016.5 hPa West 16.0 mph /  25.7 km/h 30.0 mph /  48.3 km/h 56 % 0.00 in /  0 mm 765 W/m2
14:21 55.0 °F /  12.8 °C 38.2 °F /  3.4 °C 30.02 in /  1016.5 hPa WNW 16.0 mph /  25.7 km/h 30.0 mph /  48.3 km/h 53 % 0.00 in /  0 mm 904 W/m2
14:26 54.7 °F /  12.6 °C 38.4 °F /  3.6 °C 30.02 in /  1016.5 hPa WNW 16.0 mph /  25.7 km/h 28.0 mph /  45.1 km/h 54 % 0.00 in /  0 mm 482 W/m2
14:31 54.5 °F /  12.5 °C 39.1 °F /  3.9 °C 30.02 in /  1016.5 hPa WNW 15.0 mph /  24.1 km/h 28.0 mph /  45.1 km/h 56 % 0.00 in /  0 mm 914 W/m2
14:36 54.9 °F /  12.7 °C 39.0 °F /  3.9 °C 30.02 in /  1016.5 hPa WNW 15.0 mph /  24.1 km/h 29.0 mph /  46.7 km/h 55 % 0.00 in /  0 mm 773 W/m2
14:42 54.7 °F /  12.6 °C 38.4 °F /  3.6 °C 30.03 in /  1016.8 hPa West 18.0 mph /  29 km/h 29.0 mph /  46.7 km/h 54 % 0.00 in /  0 mm 176 W/m2
14:47 54.3 °F /  12.4 °C 38.9 °F /  3.8 °C 30.02 in /  1016.5 hPa WNW 18.0 mph /  29 km/h 29.0 mph /  46.7 km/h 56 % 0.00 in /  0 mm 833 W/m2
14:52 54.7 °F /  12.6 °C 38.8 °F /  3.8 °C 30.03 in /  1016.8 hPa WNW 17.0 mph /  27.4 km/h 27.0 mph /  43.5 km/h 55 % 0.00 in /  0 mm 833 W/m2
14:57 54.0 °F /  12.2 °C 39.1 °F /  3.9 °C 30.02 in /  1016.5 hPa WNW 18.0 mph /  29 km/h 29.0 mph /  46.7 km/h 57 % 0.00 in /  0 mm 749 W/m2
15:02 54.5 °F /  12.5 °C 39.6 °F /  4.2 °C 30.02 in /  1016.5 hPa WNW 17.0 mph /  27.4 km/h 29.0 mph /  46.7 km/h 57 % 0.00 in /  0 mm 773 W/m2
15:07 54.9 °F /  12.7 °C 39.9 °F /  4.4 °C 30.02 in /  1016.5 hPa WNW 16.0 mph /  25.7 km/h 26.0 mph /  41.8 km/h 57 % 0.00 in /  0 mm 598 W/m2
15:12 54.7 °F /  12.6 °C 39.7 °F /  4.3 °C 30.03 in /  1016.8 hPa WNW 18.0 mph /  29 km/h 32.0 mph /  51.5 km/h 57 % 0.00 in /  0 mm 598 W/m2
15:17 54.1 °F /  12.3 °C 39.2 °F /  4 °C 30.03 in /  1016.8 hPa WNW 19.0 mph /  30.6 km/h 32.0 mph /  51.5 km/h 57 % 0.00 in /  0 mm 598 W/m2
15:22 53.6 °F /  12 °C 40.0 °F /  4.4 °C 30.03 in /  1016.8 hPa WNW 18.0 mph /  29 km/h 29.0 mph /  46.7 km/h 60 % 0.00 in /  0 mm 705 W/m2
15:27 53.6 °F /  12 °C 39.6 °F /  4.2 °C 30.03 in /  1016.8 hPa West 19.0 mph /  30.6 km/h 35.0 mph /  56.3 km/h 59 % 0.00 in /  0 mm 336 W/m2
15:32 53.4 °F /  11.9 °C 39.9 °F /  4.4 °C 30.03 in /  1016.8 hPa West 19.0 mph /  30.6 km/h 35.0 mph /  56.3 km/h 60 % 0.00 in /  0 mm 677 W/m2
15:37 54.0 °F /  12.2 °C 41.2 °F /  5.1 °C 30.02 in /  1016.5 hPa WNW 16.0 mph /  25.7 km/h 29.0 mph /  46.7 km/h 62 % 0.00 in /  0 mm 680 W/m2
15:42 54.3 °F /  12.4 °C 39.8 °F /  4.3 °C 30.02 in /  1016.5 hPa WNW 15.0 mph /  24.1 km/h 27.0 mph /  43.5 km/h 58 % 0.00 in /  0 mm 745 W/m2
15:47 54.5 °F /  12.5 °C 39.6 °F /  4.2 °C 30.02 in /  1016.5 hPa West 19.0 mph /  30.6 km/h 28.0 mph /  45.1 km/h 57 % 0.00 in /  0 mm 798 W/m2
15:52 54.9 °F /  12.7 °C 39.9 °F /  4.4 °C 30.02 in /  1016.5 hPa West 20.0 mph /  32.2 km/h 29.0 mph /  46.7 km/h 57 % 0.00 in /  0 mm 687 W/m2
15:57 54.9 °F /  12.7 °C 39.9 °F /  4.4 °C 30.02 in /  1016.5 hPa WNW 18.0 mph /  29 km/h 29.0 mph /  46.7 km/h 57 % 0.00 in /  0 mm 645 W/m2
16:02 54.7 °F /  12.6 °C 39.7 °F /  4.3 °C 30.02 in /  1016.5 hPa WNW 19.0 mph /  30.6 km/h 29.0 mph /  46.7 km/h 57 % 0.00 in /  0 mm 633 W/m2
16:07 53.8 °F /  12.1 °C 38.4 °F /  3.6 °C 30.02 in /  1016.5 hPa WNW 20.0 mph /  32.2 km/h 29.0 mph /  46.7 km/h 56 % 0.00 in /  0 mm 156 W/m2
16:12 53.1 °F /  11.7 °C 39.1 °F /  3.9 °C 30.02 in /  1016.5 hPa WNW 19.0 mph /  30.6 km/h 28.0 mph /  45.1 km/h 59 % 0.00 in /  0 mm 387 W/m2
16:17 52.5 °F /  11.4 °C 39.5 °F /  4.2 °C 30.03 in /  1016.8 hPa WNW 17.0 mph /  27.4 km/h 28.0 mph /  45.1 km/h 61 % 0.00 in /  0 mm 283 W/m2
16:22 52.3 °F /  11.3 °C 39.7 °F /  4.3 °C 30.03 in /  1016.8 hPa WNW 17.0 mph /  27.4 km/h 27.0 mph /  43.5 km/h 62 % 0.00 in /  0 mm 102 W/m2
16:27 52.2 °F /  11.2 °C 39.5 °F /  4.2 °C 30.03 in /  1016.8 hPa WNW 16.0 mph /  25.7 km/h 26.0 mph /  41.8 km/h 62 % 0.00 in /  0 mm 104 W/m2
16:32 51.4 °F /  10.8 °C 39.7 °F /  4.3 °C 30.04 in /  1017.2 hPa WNW 17.0 mph /  27.4 km/h 28.0 mph /  45.1 km/h 64 % 0.00 in /  0 mm 98 W/m2
16:37 50.7 °F /  10.4 °C 40.9 °F /  4.9 °C 30.04 in /  1017.2 hPa WNW 18.0 mph /  29 km/h 28.0 mph /  45.1 km/h 69 % 0.00 in /  0 mm 88 W/m2
16:42 50.0 °F /  10 °C 42.7 °F /  5.9 °C 30.04 in /  1017.2 hPa WNW 15.0 mph /  24.1 km/h 28.0 mph /  45.1 km/h 76 % 0.00 in /  0 mm 517 W/m2
16:48 49.6 °F /  9.8 °C 43.1 °F /  6.2 °C 30.04 in /  1017.2 hPa WNW 14.0 mph /  22.5 km/h 22.0 mph /  35.4 km/h 78 % 0.00 in /  0 mm 462 W/m2
16:53 49.6 °F /  9.8 °C 43.4 °F /  6.3 °C 30.03 in /  1016.8 hPa WNW 12.0 mph /  19.3 km/h 21.0 mph /  33.8 km/h 79 % 0.00 in /  0 mm 135 W/m2
16:58 49.6 °F /  9.8 °C 43.1 °F /  6.2 °C 30.03 in /  1016.8 hPa WNW 11.0 mph /  17.7 km/h 21.0 mph /  33.8 km/h 78 % 0.00 in /  0 mm 148 W/m2
17:03 50.2 °F /  10.1 °C 42.9 °F /  6.1 °C 30.03 in /  1016.8 hPa WNW 12.0 mph /  19.3 km/h 21.0 mph /  33.8 km/h 76 % 0.00 in /  0 mm 548 W/m2
17:08 51.1 °F /  10.6 °C 42.0 °F /  5.6 °C 30.03 in /  1016.8 hPa WNW 15.0 mph /  24.1 km/h 30.0 mph /  48.3 km/h 71 % 0.01 in /  0.25 mm 432 W/m2
17:13 51.4 °F /  10.8 °C 40.5 °F /  4.7 °C 30.03 in /  1016.8 hPa WNW 18.0 mph /  29 km/h 32.0 mph /  51.5 km/h 66 % 0.01 in /  0.25 mm 376 W/m2
17:18 51.6 °F /  10.9 °C 39.8 °F /  4.3 °C 30.03 in /  1016.8 hPa WNW 19.0 mph /  30.6 km/h 32.0 mph /  51.5 km/h 64 % 0.01 in /  0.25 mm 373 W/m2
17:23 51.8 °F /  11 °C 40.0 °F /  4.4 °C 30.03 in /  1016.8 hPa WNW 16.0 mph /  25.7 km/h 29.0 mph /  46.7 km/h 64 % 0.01 in /  0.25 mm 378 W/m2
17:28 51.6 °F /  10.9 °C 39.8 °F /  4.3 °C 30.03 in /  1016.8 hPa West 14.0 mph /  22.5 km/h 24.0 mph /  38.6 km/h 64 % 0.01 in /  0.25 mm 113 W/m2
17:33 51.3 °F /  10.7 °C 39.9 °F /  4.4 °C 30.03 in /  1016.8 hPa WNW 14.0 mph /  22.5 km/h 24.0 mph /  38.6 km/h 65 % 0.01 in /  0.25 mm 114 W/m2
17:38 50.9 °F /  10.5 °C 39.9 °F /  4.4 °C 30.04 in /  1017.2 hPa WNW 11.0 mph /  17.7 km/h 24.0 mph /  38.6 km/h 66 % 0.01 in /  0.25 mm 84 W/m2
17:43 50.5 °F /  10.3 °C 40.7 °F /  4.8 °C 30.05 in /  1017.5 hPa WNW 10.0 mph /  16.1 km/h 24.0 mph /  38.6 km/h 69 % 0.01 in /  0.25 mm 32 W/m2
17:48 49.3 °F /  9.6 °C 42.4 °F /  5.8 °C 30.05 in /  1017.5 hPa WNW 13.0 mph /  20.9 km/h 24.0 mph /  38.6 km/h 77 % 0.02 in /  0.51 mm 60 W/m2
17:54 47.7 °F /  8.7 °C 41.8 °F /  5.4 °C 30.05 in /  1017.5 hPa WNW 16.0 mph /  25.7 km/h 25.0 mph /  40.2 km/h 80 % 0.02 in /  0.51 mm 93 W/m2
17:59 46.6 °F /  8.1 °C 41.7 °F /  5.4 °C 30.05 in /  1017.5 hPa WNW 16.0 mph /  25.7 km/h 25.0 mph /  40.2 km/h 83 % 0.02 in /  0.51 mm 199 W/m2
18:04 46.2 °F /  7.9 °C 42.0 °F /  5.6 °C 30.05 in /  1017.5 hPa WNW 15.0 mph /  24.1 km/h 25.0 mph /  40.2 km/h 85 % 0.02 in /  0.51 mm 63 W/m2
18:09 45.9 °F /  7.7 °C 41.9 °F /  5.5 °C 30.05 in /  1017.5 hPa WNW 13.0 mph /  20.9 km/h 23.0 mph /  37 km/h 86 % 0.01 in /  0.25 mm 186 W/m2
18:14 46.0 °F /  7.8 °C 42.4 °F /  5.8 °C 30.05 in /  1017.5 hPa WNW 12.0 mph /  19.3 km/h 21.0 mph /  33.8 km/h 87 % 0.01 in /  0.25 mm 223 W/m2
18:19 46.2 °F /  7.9 °C 42.3 °F /  5.7 °C 30.04 in /  1017.2 hPa WNW 12.0 mph /  19.3 km/h 19.0 mph /  30.6 km/h 86 % 0.01 in /  0.25 mm 199 W/m2
18:24 46.6 °F /  8.1 °C 42.3 °F /  5.7 °C 30.04 in /  1017.2 hPa WNW 12.0 mph /  19.3 km/h 21.0 mph /  33.8 km/h 85 % 0.01 in /  0.25 mm 127 W/m2
18:29 46.6 °F /  8.1 °C 41.7 °F /  5.4 °C 30.04 in /  1017.2 hPa WNW 14.0 mph /  22.5 km/h 25.0 mph /  40.2 km/h 83 % 0.01 in /  0.25 mm 144 W/m2
18:34 46.8 °F /  8.2 °C 41.6 °F /  5.3 °C 30.04 in /  1017.2 hPa WNW 15.0 mph /  24.1 km/h 25.0 mph /  40.2 km/h 82 % 0.01 in /  0.25 mm 165 W/m2
18:39 46.9 °F /  8.3 °C 41.4 °F /  5.2 °C 30.05 in /  1017.5 hPa WNW 13.0 mph /  20.9 km/h 23.0 mph /  37 km/h 81 % 0.01 in /  0.25 mm 153 W/m2
18:44 47.3 °F /  8.5 °C 41.8 °F /  5.4 °C 30.05 in /  1017.5 hPa WNW 11.0 mph /  17.7 km/h 20.0 mph /  32.2 km/h 81 % 0.01 in /  0.25 mm 153 W/m2
18:49 47.5 °F /  8.6 °C 41.6 °F /  5.3 °C 30.06 in /  1017.8 hPa WNW 10.0 mph /  16.1 km/h 20.0 mph /  32.2 km/h 80 % 0.00 in /  0 mm 120 W/m2
18:54 47.5 °F /  8.6 °C 40.6 °F /  4.8 °C 30.06 in /  1017.8 hPa WNW 10.0 mph /  16.1 km/h 21.0 mph /  33.8 km/h 77 % 0.00 in /  0 mm 114 W/m2
18:59 47.5 °F /  8.6 °C 40.3 °F /  4.6 °C 30.06 in /  1017.8 hPa WNW 11.0 mph /  17.7 km/h 21.0 mph /  33.8 km/h 76 % 0.00 in /  0 mm 95 W/m2
19:04 47.5 °F /  8.6 °C 40.3 °F /  4.6 °C 30.06 in /  1017.8 hPa WNW 10.0 mph /  16.1 km/h 19.0 mph /  30.6 km/h 76 % 0.00 in /  0 mm 84 W/m2
19:09 47.5 °F /  8.6 °C 39.9 °F /  4.4 °C 30.06 in /  1017.8 hPa WNW 11.0 mph /  17.7 km/h 21.0 mph /  33.8 km/h 75 % 0.00 in /  0 mm 67 W/m2
19:14 47.3 °F /  8.5 °C 39.4 °F /  4.1 °C 30.06 in /  1017.8 hPa WNW 11.0 mph /  17.7 km/h 21.0 mph /  33.8 km/h 74 % 0.00 in /  0 mm 47 W/m2
19:19 46.9 °F /  8.3 °C 39.1 °F /  3.9 °C 30.06 in /  1017.8 hPa WNW 12.0 mph /  19.3 km/h 20.0 mph /  32.2 km/h 74 % 0.00 in /  0 mm 44 W/m2
19:24 46.8 °F /  8.2 °C 38.6 °F /  3.7 °C 30.07 in /  1018.2 hPa WNW 13.0 mph /  20.9 km/h 21.0 mph /  33.8 km/h 73 % 0.00 in /  0 mm 33 W/m2
19:29 46.6 °F /  8.1 °C 38.4 °F /  3.6 °C 30.07 in /  1018.2 hPa WNW 13.0 mph /  20.9 km/h 21.0 mph /  33.8 km/h 73 % 0.00 in /  0 mm 25 W/m2
19:34 46.6 °F /  8.1 °C 38.4 °F /  3.6 °C 30.07 in /  1018.2 hPa WNW 11.0 mph /  17.7 km/h 21.0 mph /  33.8 km/h 73 % 0.00 in /  0 mm 21 W/m2
19:39 46.2 °F /  7.9 °C 38.0 °F /  3.3 °C 30.07 in /  1018.2 hPa WNW 11.0 mph /  17.7 km/h 18.0 mph /  29 km/h 73 % 0.00 in /  0 mm 19 W/m2
19:44 46.0 °F /  7.8 °C 38.2 °F /  3.4 °C 30.07 in /  1018.2 hPa WNW 11.0 mph /  17.7 km/h 19.0 mph /  30.6 km/h 74 % 0.00 in /  0 mm 16 W/m2
19:49 45.9 °F /  7.7 °C 38.0 °F /  3.3 °C 30.07 in /  1018.2 hPa WNW 11.0 mph /  17.7 km/h 19.0 mph /  30.6 km/h 74 % 0.00 in /  0 mm 12 W/m2
19:54 45.7 °F /  7.6 °C 37.9 °F /  3.3 °C 30.07 in /  1018.2 hPa WNW 11.0 mph /  17.7 km/h 21.0 mph /  33.8 km/h 74 % 0.00 in /  0 mm 9 W/m2
19:59 45.3 °F /  7.4 °C 37.5 °F /  3.1 °C 30.07 in /  1018.2 hPa WNW 11.0 mph /  17.7 km/h 21.0 mph /  33.8 km/h 74 % 0.00 in /  0 mm 7 W/m2
20:04 45.3 °F /  7.4 °C 37.5 °F /  3.1 °C 30.07 in /  1018.2 hPa WNW 12.0 mph /  19.3 km/h 20.0 mph /  32.2 km/h 74 % 0.00 in /  0 mm 0 W/m2
20:09 45.1 °F /  7.3 °C 37.3 °F /  2.9 °C 30.07 in /  1018.2 hPa WNW 12.0 mph /  19.3 km/h 22.0 mph /  35.4 km/h 74 % 0.00 in /  0 mm 0 W/m2
20:14 45.1 °F /  7.3 °C 37.3 °F /  2.9 °C 30.07 in /  1018.2 hPa WNW 12.0 mph /  19.3 km/h 23.0 mph /  37 km/h 74 % 0.00 in /  0 mm 0 W/m2
20:19 45.0 °F /  7.2 °C 37.2 °F /  2.9 °C 30.07 in /  1018.2 hPa WNW 13.0 mph /  20.9 km/h 23.0 mph /  37 km/h 74 % 0.00 in /  0 mm 0 W/m2
20:24 45.0 °F /  7.2 °C 37.2 °F /  2.9 °C 30.07 in /  1018.2 hPa WNW 12.0 mph /  19.3 km/h 21.0 mph /  33.8 km/h 74 % 0.00 in /  0 mm 0 W/m2
20:29 44.8 °F /  7.1 °C 37.3 °F /  2.9 °C 30.07 in /  1018.2 hPa WNW 10.0 mph /  16.1 km/h 19.0 mph /  30.6 km/h 75 % 0.00 in /  0 mm 0 W/m2
20:34 44.6 °F /  7 °C 37.2 °F /  2.9 °C 30.08 in /  1018.5 hPa WNW 10.0 mph /  16.1 km/h 15.0 mph /  24.1 km/h 75 % 0.00 in /  0 mm 0 W/m2
20:39 44.4 °F /  6.9 °C 37.0 °F /  2.8 °C 30.08 in /  1018.5 hPa WNW 9.0 mph /  14.5 km/h 15.0 mph /  24.1 km/h 75 % 0.00 in /  0 mm 0 W/m2
20:44 44.4 °F /  6.9 °C 37.0 °F /  2.8 °C 30.08 in /  1018.5 hPa WNW 8.0 mph /  12.9 km/h 15.0 mph /  24.1 km/h 75 % 0.00 in /  0 mm 0 W/m2
20:49 44.2 °F /  6.8 °C 37.2 °F /  2.9 °C 30.09 in /  1018.8 hPa WNW 7.0 mph /  11.3 km/h 15.0 mph /  24.1 km/h 76 % 0.00 in /  0 mm 0 W/m2
20:54 44.2 °F /  6.8 °C 37.2 °F /  2.9 °C 30.09 in /  1018.8 hPa WNW 6.0 mph /  9.7 km/h 14.0 mph /  22.5 km/h 76 % 0.00 in /  0 mm 0 W/m2
21:00 44.1 °F /  6.7 °C 37.0 °F /  2.8 °C 30.09 in /  1018.8 hPa NW 6.0 mph /  9.7 km/h 11.0 mph /  17.7 km/h 76 % 0.00 in /  0 mm 0 W/m2
21:05 44.1 °F /  6.7 °C 37.3 °F /  2.9 °C 30.09 in /  1018.8 hPa WNW 5.0 mph /  8 km/h 13.0 mph /  20.9 km/h 77 % 0.00 in /  0 mm 0 W/m2
21:10 44.1 °F /  6.7 °C 37.3 °F /  2.9 °C 30.09 in /  1018.8 hPa WNW 6.0 mph /  9.7 km/h 13.0 mph /  20.9 km/h 77 % 0.00 in /  0 mm 0 W/m2
21:15 43.9 °F /  6.6 °C 37.1 °F /  2.8 °C 30.10 in /  1019.2 hPa WNW 5.0 mph /  8 km/h 12.0 mph /  19.3 km/h 77 % 0.00 in /  0 mm 0 W/m2
21:20 43.9 °F /  6.6 °C 37.1 °F /  2.8 °C 30.10 in /  1019.2 hPa NW 5.0 mph /  8 km/h 15.0 mph /  24.1 km/h 77 % 0.00 in /  0 mm 0 W/m2
21:25 43.9 °F /  6.6 °C 37.1 °F /  2.8 °C 30.10 in /  1019.2 hPa NW 5.0 mph /  8 km/h 13.0 mph /  20.9 km/h 77 % 0.00 in /  0 mm 0 W/m2
21:31 43.9 °F /  6.6 °C 37.1 °F /  2.8 °C 30.10 in /  1019.2 hPa NW 6.0 mph /  9.7 km/h 13.0 mph /  20.9 km/h 77 % 0.00 in /  0 mm 0 W/m2
21:36 43.9 °F /  6.6 °C 36.8 °F /  2.7 °C 30.10 in /  1019.2 hPa NW 7.0 mph /  11.3 km/h 15.0 mph /  24.1 km/h 76 % 0.00 in /  0 mm 0 W/m2
21:41 43.9 °F /  6.6 °C 36.8 °F /  2.7 °C 30.10 in /  1019.2 hPa NW 7.0 mph /  11.3 km/h 15.0 mph /  24.1 km/h 76 % 0.00 in /  0 mm 0 W/m2
21:46 43.9 °F /  6.6 °C 36.8 °F /  2.7 °C 30.10 in /  1019.2 hPa NW 7.0 mph /  11.3 km/h 14.0 mph /  22.5 km/h 76 % 0.00 in /  0 mm 0 W/m2
21:51 43.9 °F /  6.6 °C 36.8 °F /  2.7 °C 30.10 in /  1019.2 hPa NW 7.0 mph /  11.3 km/h 13.0 mph /  20.9 km/h 76 % 0.00 in /  0 mm 0 W/m2
21:56 43.9 °F /  6.6 °C 36.8 °F /  2.7 °C 30.10 in /  1019.2 hPa NW 7.0 mph /  11.3 km/h 14.0 mph /  22.5 km/h 76 % 0.00 in /  0 mm 0 W/m2
22:01 43.7 °F /  6.5 °C 36.6 °F /  2.6 °C 30.10 in /  1019.2 hPa NW 7.0 mph /  11.3 km/h 14.0 mph /  22.5 km/h 76 % 0.00 in /  0 mm 0 W/m2
22:06 43.7 °F /  6.5 °C 37.0 °F /  2.8 °C 30.10 in /  1019.2 hPa NW 7.0 mph /  11.3 km/h 15.0 mph /  24.1 km/h 77 % 0.00 in /  0 mm 0 W/m2
22:11 43.5 °F /  6.4 °C 36.8 °F /  2.7 °C 30.10 in /  1019.2 hPa WNW 6.0 mph /  9.7 km/h 15.0 mph /  24.1 km/h 77 % 0.00 in /  0 mm 0 W/m2
22:16 43.5 °F /  6.4 °C 36.5 °F /  2.5 °C 30.10 in /  1019.2 hPa WNW 7.0 mph /  11.3 km/h 13.0 mph /  20.9 km/h 76 % 0.00 in /  0 mm 0 W/m2
22:21 43.5 °F /  6.4 °C 36.8 °F /  2.7 °C 30.11 in /  1019.5 hPa WNW 7.0 mph /  11.3 km/h 13.0 mph /  20.9 km/h 77 % 0.00 in /  0 mm 0 W/m2
22:26 43.5 °F /  6.4 °C 36.5 °F /  2.5 °C 30.11 in /  1019.5 hPa WNW 7.0 mph /  11.3 km/h 15.0 mph /  24.1 km/h 76 % 0.00 in /  0 mm 0 W/m2
22:31 43.3 °F /  6.3 °C 36.3 °F /  2.4 °C 30.11 in /  1019.5 hPa WNW 7.0 mph /  11.3 km/h 15.0 mph /  24.1 km/h 76 % 0.00 in /  0 mm 0 W/m2
22:36 43.3 °F /  6.3 °C 36.3 °F /  2.4 °C 30.10 in /  1019.2 hPa WNW 7.0 mph /  11.3 km/h 14.0 mph /  22.5 km/h 76 % 0.00 in /  0 mm 0 W/m2
22:41 43.2 °F /  6.2 °C 36.1 °F /  2.3 °C 30.11 in /  1019.5 hPa WNW 7.0 mph /  11.3 km/h 14.0 mph /  22.5 km/h 76 % 0.00 in /  0 mm 0 W/m2
22:46 43.2 °F /  6.2 °C 36.1 °F /  2.3 °C 30.10 in /  1019.2 hPa WNW 8.0 mph /  12.9 km/h 19.0 mph /  30.6 km/h 76 % 0.00 in /  0 mm 0 W/m2
22:51 43.2 °F /  6.2 °C 36.1 °F /  2.3 °C 30.11 in /  1019.5 hPa WNW 8.0 mph /  12.9 km/h 19.0 mph /  30.6 km/h 76 % 0.00 in /  0 mm 0 W/m2
22:56 43.2 °F /  6.2 °C 36.1 °F /  2.3 °C 30.11 in /  1019.5 hPa WNW 7.0 mph /  11.3 km/h 14.0 mph /  22.5 km/h 76 % 0.00 in /  0 mm 0 W/m2
23:01 43.0 °F /  6.1 °C 35.9 °F /  2.2 °C 30.11 in /  1019.5 hPa WNW 5.0 mph /  8 km/h 11.0 mph /  17.7 km/h 76 % 0.00 in /  0 mm 0 W/m2
23:06 43.0 °F /  6.1 °C 36.3 °F /  2.4 °C 30.11 in /  1019.5 hPa WNW 4.0 mph /  6.4 km/h 8.0 mph /  12.9 km/h 77 % 0.00 in /  0 mm 0 W/m2
23:11 42.8 °F /  6 °C 36.1 °F /  2.3 °C 30.11 in /  1019.5 hPa WNW 2.0 mph /  3.2 km/h 7.0 mph /  11.3 km/h 77 % 0.00 in /  0 mm 0 W/m2
23:16 42.6 °F /  5.9 °C 35.9 °F /  2.2 °C 30.11 in /  1019.5 hPa WNW 2.0 mph /  3.2 km/h 7.0 mph /  11.3 km/h 77 % 0.00 in /  0 mm 0 W/m2
23:21 42.4 °F /  5.8 °C 35.7 °F /  2.1 °C 30.11 in /  1019.5 hPa WNW 3.0 mph /  4.8 km/h 7.0 mph /  11.3 km/h 77 % 0.00 in /  0 mm 0 W/m2
23:26 42.3 °F /  5.7 °C 35.6 °F /  2 °C 30.11 in /  1019.5 hPa WNW 3.0 mph /  4.8 km/h 9.0 mph /  14.5 km/h 77 % 0.00 in /  0 mm 0 W/m2
23:31 42.1 °F /  5.6 °C 35.4 °F /  1.9 °C 30.11 in /  1019.5 hPa WNW 3.0 mph /  4.8 km/h 9.0 mph /  14.5 km/h 77 % 0.00 in /  0 mm 0 W/m2
23:36 42.1 °F /  5.6 °C 35.4 °F /  1.9 °C 30.12 in /  1019.9 hPa West 3.0 mph /  4.8 km/h 7.0 mph /  11.3 km/h 77 % 0.00 in /  0 mm 0 W/m2
23:41 42.1 °F /  5.6 °C 35.1 °F /  1.7 °C 30.12 in /  1019.9 hPa West 3.0 mph /  4.8 km/h 7.0 mph /  11.3 km/h 76 % 0.00 in /  0 mm 0 W/m2
23:47 42.1 °F /  5.6 °C 35.1 °F /  1.7 °C 30.12 in /  1019.9 hPa West 3.0 mph /  4.8 km/h 7.0 mph /  11.3 km/h 76 % 0.00 in /  0 mm 0 W/m2
23:52 41.9 °F /  5.5 °C 35.2 °F /  1.8 °C 30.12 in /  1019.9 hPa West 3.0 mph /  4.8 km/h 7.0 mph /  11.3 km/h 77 % 0.00 in /  0 mm 0 W/m2
23:57 41.7 °F /  5.4 °C 35.0 °F /  1.7 °C 30.12 in /  1019.9 hPa West 3.0 mph /  4.8 km/h 7.0 mph /  11.3 km/h 77 % 0.00 in /  0 mm 0 W/m2
Delerius-Weather
Compliments of Weather Underground - 2.25 mb

Data updates at regular intervals.